sensor_id;sensor_type;location;lat;lon;timestamp;temperature;humidity
34099;DHT22;20374;49.474;10.944;2022-08-19T00:00:37;20.10;99.90
34099;DHT22;20374;49.474;10.944;2022-08-19T00:03:04;20.10;99.90
34099;DHT22;20374;49.474;10.944;2022-08-19T00:05:31;20.20;99.90
34099;DHT22;20374;49.474;10.944;2022-08-19T00:07:57;20.20;99.90
34099;DHT22;20374;49.474;10.944;2022-08-19T00:10:23;20.20;99.90
34099;DHT22;20374;49.474;10.944;2022-08-19T00:12:50;20.10;99.90
34099;DHT22;20374;49.474;10.944;2022-08-19T00:15:18;20.00;99.90
34099;DHT22;20374;49.474;10.944;2022-08-19T00:17:46;20.00;99.90
34099;DHT22;20374;49.474;10.944;2022-08-19T00:20:15;19.90;99.90
34099;DHT22;20374;49.474;10.944;2022-08-19T00:22:45;19.90;99.90
34099;DHT22;20374;49.474;10.944;2022-08-19T00:25:11;19.90;99.90
34099;DHT22;20374;49.474;10.944;2022-08-19T00:27:37;19.90;99.90
34099;DHT22;20374;49.474;10.944;2022-08-19T00:30:06;20.00;99.90
34099;DHT22;20374;49.474;10.944;2022-08-19T00:32:32;20.00;99.90
34099;DHT22;20374;49.474;10.944;2022-08-19T00:35:00;20.10;99.90
34099;DHT22;20374;49.474;10.944;2022-08-19T00:37:26;20.10;99.90
34099;DHT22;20374;49.474;10.944;2022-08-19T00:39:53;20.20;99.90
34099;DHT22;20374;49.474;10.944;2022-08-19T00:42:21;20.10;99.90
34099;DHT22;20374;49.474;10.944;2022-08-19T00:44:48;20.10;99.90
34099;DHT22;20374;49.474;10.944;2022-08-19T00:47:18;20.20;99.90
34099;DHT22;20374;49.474;10.944;2022-08-19T00:49:59;20.20;99.90
34099;DHT22;20374;49.474;10.944;2022-08-19T00:52:33;20.10;99.90
34099;DHT22;20374;49.474;10.944;2022-08-19T00:55:01;20.10;99.90
34099;DHT22;20374;49.474;10.944;2022-08-19T00:57:35;20.10;99.90
34099;DHT22;20374;49.474;10.944;2022-08-19T01:00:08;20.00;99.90
34099;DHT22;20374;49.474;10.944;2022-08-19T01:02:37;20.10;99.90
34099;DHT22;20374;49.474;10.944;2022-08-19T01:05:06;20.00;99.90
34099;DHT22;20374;49.474;10.944;2022-08-19T01:07:34;20.00;99.90
34099;DHT22;20374;49.474;10.944;2022-08-19T01:10:01;20.00;99.90
34099;DHT22;20374;49.474;10.944;2022-08-19T01:12:27;19.90;99.90
34099;DHT22;20374;49.474;10.944;2022-08-19T01:14:53;19.80;99.90
34099;DHT22;20374;49.474;10.944;2022-08-19T01:17:20;19.80;99.90
34099;DHT22;20374;49.474;10.944;2022-08-19T01:19:47;19.80;99.90
34099;DHT22;20374;49.474;10.944;2022-08-19T01:22:29;19.70;99.90
34099;DHT22;20374;49.474;10.944;2022-08-19T01:24:57;19.80;99.90
34099;DHT22;20374;49.474;10.944;2022-08-19T01:27:22;19.80;99.90
34099;DHT22;20374;49.474;10.944;2022-08-19T01:29:48;19.80;99.90
34099;DHT22;20374;49.474;10.944;2022-08-19T01:32:16;19.90;99.90
34099;DHT22;20374;49.474;10.944;2022-08-19T01:34:42;19.90;99.90
34099;DHT22;20374;49.474;10.944;2022-08-19T01:37:14;20.00;99.90
34099;DHT22;20374;49.474;10.944;2022-08-19T01:39:41;20.00;99.90
34099;DHT22;20374;49.474;10.944;2022-08-19T01:42:08;20.10;99.90
34099;DHT22;20374;49.474;10.944;2022-08-19T01:44:35;20.10;99.90
34099;DHT22;20374;49.474;10.944;2022-08-19T01:47:02;20.10;99.90
34099;DHT22;20374;49.474;10.944;2022-08-19T01:49:29;20.10;99.90
34099;DHT22;20374;49.474;10.944;2022-08-19T01:51:55;20.00;99.90
34099;DHT22;20374;49.474;10.944;2022-08-19T01:54:23;20.00;99.90
34099;DHT22;20374;49.474;10.944;2022-08-19T01:56:51;20.00;99.90
34099;DHT22;20374;49.474;10.944;2022-08-19T01:59:20;20.00;99.90
34099;DHT22;20374;49.474;10.944;2022-08-19T02:01:47;20.00;99.90
34099;DHT22;20374;49.474;10.944;2022-08-19T02:04:13;20.00;99.90
34099;DHT22;20374;49.474;10.944;2022-08-19T02:06:40;19.90;99.90
34099;DHT22;20374;49.474;10.944;2022-08-19T02:09:06;19.90;99.90
34099;DHT22;20374;49.474;10.944;2022-08-19T02:11:35;19.90;99.90
34099;DHT22;20374;49.474;10.944;2022-08-19T02:14:06;19.90;99.90
34099;DHT22;20374;49.474;10.944;2022-08-19T02:16:32;19.90;99.90
34099;DHT22;20374;49.474;10.944;2022-08-19T02:18:58;19.90;99.90
34099;DHT22;20374;49.474;10.944;2022-08-19T02:21:28;20.00;99.90
34099;DHT22;20374;49.474;10.944;2022-08-19T02:23:54;19.90;99.90
34099;DHT22;20374;49.474;10.944;2022-08-19T02:26:21;19.90;99.90
34099;DHT22;20374;49.474;10.944;2022-08-19T02:28:47;19.90;99.90
34099;DHT22;20374;49.474;10.944;2022-08-19T02:31:17;19.80;99.90
34099;DHT22;20374;49.474;10.944;2022-08-19T02:33:44;19.70;99.90
34099;DHT22;20374;49.474;10.944;2022-08-19T02:36:11;19.70;99.90
34099;DHT22;20374;49.474;10.944;2022-08-19T02:38:38;19.80;99.90
34099;DHT22;20374;49.474;10.944;2022-08-19T02:41:11;19.70;99.90
34099;DHT22;20374;49.474;10.944;2022-08-19T02:43:37;19.70;99.90
34099;DHT22;20374;49.474;10.944;2022-08-19T02:46:23;19.70;99.90
34099;DHT22;20374;49.474;10.944;2022-08-19T02:48:53;19.80;99.90
34099;DHT22;20374;49.474;10.944;2022-08-19T02:51:23;19.80;99.90
34099;DHT22;20374;49.474;10.944;2022-08-19T02:53:49;19.80;99.90
34099;DHT22;20374;49.474;10.944;2022-08-19T02:56:16;19.80;99.90
34099;DHT22;20374;49.474;10.944;2022-08-19T02:58:43;19.80;99.90
34099;DHT22;20374;49.474;10.944;2022-08-19T03:01:10;19.90;99.90
34099;DHT22;20374;49.474;10.944;2022-08-19T03:03:37;19.90;99.90
34099;DHT22;20374;49.474;10.944;2022-08-19T03:06:12;19.90;99.90
34099;DHT22;20374;49.474;10.944;2022-08-19T03:08:40;19.90;99.90
34099;DHT22;20374;49.474;10.944;2022-08-19T03:11:16;19.90;99.90
34099;DHT22;20374;49.474;10.944;2022-08-19T03:13:42;20.00;99.90
34099;DHT22;20374;49.474;10.944;2022-08-19T03:16:10;20.00;99.90
34099;DHT22;20374;49.474;10.944;2022-08-19T03:18:36;20.10;99.90
34099;DHT22;20374;49.474;10.944;2022-08-19T03:21:03;20.10;99.90
34099;DHT22;20374;49.474;10.944;2022-08-19T03:23:29;20.10;99.90
34099;DHT22;20374;49.474;10.944;2022-08-19T03:25:55;20.10;99.90
34099;DHT22;20374;49.474;10.944;2022-08-19T03:28:21;20.10;99.90
34099;DHT22;20374;49.474;10.944;2022-08-19T03:31:02;20.10;99.90
34099;DHT22;20374;49.474;10.944;2022-08-19T03:33:30;20.10;99.90
34099;DHT22;20374;49.474;10.944;2022-08-19T03:36:09;20.10;99.90
34099;DHT22;20374;49.474;10.944;2022-08-19T03:38:37;20.10;99.90
34099;DHT22;20374;49.474;10.944;2022-08-19T03:41:05;20.10;99.90
34099;DHT22;20374;49.474;10.944;2022-08-19T03:43:33;20.00;99.90
34099;DHT22;20374;49.474;10.944;2022-08-19T03:46:03;20.00;99.90
34099;DHT22;20374;49.474;10.944;2022-08-19T03:48:30;19.90;99.90
34099;DHT22;20374;49.474;10.944;2022-08-19T03:50:57;19.80;99.90
34099;DHT22;20374;49.474;10.944;2022-08-19T03:53:25;19.70;99.90
34099;DHT22;20374;49.474;10.944;2022-08-19T03:55:52;19.60;99.90
34099;DHT22;20374;49.474;10.944;2022-08-19T03:58:19;19.50;99.90
34099;DHT22;20374;49.474;10.944;2022-08-19T04:00:45;19.40;99.90
34099;DHT22;20374;49.474;10.944;2022-08-19T04:03:11;19.40;99.90
34099;DHT22;20374;49.474;10.944;2022-08-19T04:05:37;19.40;99.90
34099;DHT22;20374;49.474;10.944;2022-08-19T04:08:04;19.40;99.90
34099;DHT22;20374;49.474;10.944;2022-08-19T04:10:37;19.40;99.90
34099;DHT22;20374;49.474;10.944;2022-08-19T04:13:04;19.40;99.90
34099;DHT22;20374;49.474;10.944;2022-08-19T04:15:32;19.40;99.90
34099;DHT22;20374;49.474;10.944;2022-08-19T04:18:05;19.30;99.90
34099;DHT22;20374;49.474;10.944;2022-08-19T04:20:41;19.30;99.90
34099;DHT22;20374;49.474;10.944;2022-08-19T04:23:07;19.30;99.90
34099;DHT22;20374;49.474;10.944;2022-08-19T04:25:42;19.30;99.90
34099;DHT22;20374;49.474;10.944;2022-08-19T04:28:09;19.30;99.90
34099;DHT22;20374;49.474;10.944;2022-08-19T04:30:48;19.30;99.90
34099;DHT22;20374;49.474;10.944;2022-08-19T04:33:19;19.40;99.90
34099;DHT22;20374;49.474;10.944;2022-08-19T04:35:47;19.40;99.90
34099;DHT22;20374;49.474;10.944;2022-08-19T04:38:18;19.50;99.90
34099;DHT22;20374;49.474;10.944;2022-08-19T04:40:49;19.60;99.90
34099;DHT22;20374;49.474;10.944;2022-08-19T04:43:37;19.60;99.90
34099;DHT22;20374;49.474;10.944;2022-08-19T04:46:08;19.70;99.90
34099;DHT22;20374;49.474;10.944;2022-08-19T04:48:36;19.70;99.90
34099;DHT22;20374;49.474;10.944;2022-08-19T04:51:07;19.70;99.90
34099;DHT22;20374;49.474;10.944;2022-08-19T04:53:35;19.80;99.90
34099;DHT22;20374;49.474;10.944;2022-08-19T04:56:07;19.80;99.90
34099;DHT22;20374;49.474;10.944;2022-08-19T04:58:33;19.80;99.90
34099;DHT22;20374;49.474;10.944;2022-08-19T05:00:59;19.80;99.90
34099;DHT22;20374;49.474;10.944;2022-08-19T05:03:28;19.80;99.90
34099;DHT22;20374;49.474;10.944;2022-08-19T05:06:05;20.00;99.90
34099;DHT22;20374;49.474;10.944;2022-08-19T05:08:34;19.80;99.90
34099;DHT22;20374;49.474;10.944;2022-08-19T05:11:01;19.80;99.90
34099;DHT22;20374;49.474;10.944;2022-08-19T05:13:27;19.90;99.90
34099;DHT22;20374;49.474;10.944;2022-08-19T05:15:57;19.90;99.90
34099;DHT22;20374;49.474;10.944;2022-08-19T05:18:24;19.80;99.90
34099;DHT22;20374;49.474;10.944;2022-08-19T05:21:11;19.80;99.90
34099;DHT22;20374;49.474;10.944;2022-08-19T05:23:55;19.80;99.90
34099;DHT22;20374;49.474;10.944;2022-08-19T05:26:21;19.80;99.90
34099;DHT22;20374;49.474;10.944;2022-08-19T05:28:47;19.80;99.90
34099;DHT22;20374;49.474;10.944;2022-08-19T05:31:13;19.80;99.90
34099;DHT22;20374;49.474;10.944;2022-08-19T05:33:39;19.80;99.90
34099;DHT22;20374;49.474;10.944;2022-08-19T05:36:06;19.80;99.90
34099;DHT22;20374;49.474;10.944;2022-08-19T05:38:34;19.80;99.90
34099;DHT22;20374;49.474;10.944;2022-08-19T05:41:11;19.70;99.90
34099;DHT22;20374;49.474;10.944;2022-08-19T05:43:37;19.70;99.90
34099;DHT22;20374;49.474;10.944;2022-08-19T05:46:04;19.80;99.90
34099;DHT22;20374;49.474;10.944;2022-08-19T05:48:32;19.80;99.90
34099;DHT22;20374;49.474;10.944;2022-08-19T05:51:04;19.80;99.90
34099;DHT22;20374;49.474;10.944;2022-08-19T05:53:33;19.80;99.90
34099;DHT22;20374;49.474;10.944;2022-08-19T05:56:08;19.80;99.90
34099;DHT22;20374;49.474;10.944;2022-08-19T05:58:36;19.80;99.90
34099;DHT22;20374;49.474;10.944;2022-08-19T06:01:03;19.80;99.90
34099;DHT22;20374;49.474;10.944;2022-08-19T06:03:35;19.70;99.90
34099;DHT22;20374;49.474;10.944;2022-08-19T06:06:04;19.80;99.90
34099;DHT22;20374;49.474;10.944;2022-08-19T06:08:31;19.80;99.90
34099;DHT22;20374;49.474;10.944;2022-08-19T06:10:57;19.80;99.90
34099;DHT22;20374;49.474;10.944;2022-08-19T06:13:23;19.80;99.90
34099;DHT22;20374;49.474;10.944;2022-08-19T06:15:51;19.90;99.90
34099;DHT22;20374;49.474;10.944;2022-08-19T06:18:17;20.00;99.90
34099;DHT22;20374;49.474;10.944;2022-08-19T06:20:43;20.10;99.90
34099;DHT22;20374;49.474;10.944;2022-08-19T06:23:09;20.10;99.90
34099;DHT22;20374;49.474;10.944;2022-08-19T06:25:35;20.10;99.90
34099;DHT22;20374;49.474;10.944;2022-08-19T06:28:01;20.20;99.90
34099;DHT22;20374;49.474;10.944;2022-08-19T06:30:28;20.30;99.90
34099;DHT22;20374;49.474;10.944;2022-08-19T06:32:55;20.40;99.90
34099;DHT22;20374;49.474;10.944;2022-08-19T06:35:21;20.50;99.90
34099;DHT22;20374;49.474;10.944;2022-08-19T06:37:47;20.60;99.90
34099;DHT22;20374;49.474;10.944;2022-08-19T06:40:13;20.60;99.90
34099;DHT22;20374;49.474;10.944;2022-08-19T06:42:39;20.70;99.90
34099;DHT22;20374;49.474;10.944;2022-08-19T06:45:06;20.80;99.90
34099;DHT22;20374;49.474;10.944;2022-08-19T06:47:34;20.90;99.90
34099;DHT22;20374;49.474;10.944;2022-08-19T06:50:00;21.10;99.90
34099;DHT22;20374;49.474;10.944;2022-08-19T06:52:29;21.20;99.90
34099;DHT22;20374;49.474;10.944;2022-08-19T06:54:55;21.40;99.90
34099;DHT22;20374;49.474;10.944;2022-08-19T06:57:26;21.40;99.90
34099;DHT22;20374;49.474;10.944;2022-08-19T06:59:53;21.50;99.90
34099;DHT22;20374;49.474;10.944;2022-08-19T07:02:19;21.60;99.90
34099;DHT22;20374;49.474;10.944;2022-08-19T07:04:46;21.60;99.90
34099;DHT22;20374;49.474;10.944;2022-08-19T07:07:14;21.50;99.90
34099;DHT22;20374;49.474;10.944;2022-08-19T07:09:43;21.30;99.90
34099;DHT22;20374;49.474;10.944;2022-08-19T07:12:11;21.30;99.90
34099;DHT22;20374;49.474;10.944;2022-08-19T07:14:39;21.20;99.90
34099;DHT22;20374;49.474;10.944;2022-08-19T07:17:10;21.20;99.90
34099;DHT22;20374;49.474;10.944;2022-08-19T07:19:37;21.10;99.90
34099;DHT22;20374;49.474;10.944;2022-08-19T07:22:08;21.10;99.90
34099;DHT22;20374;49.474;10.944;2022-08-19T07:24:49;21.00;99.90
34099;DHT22;20374;49.474;10.944;2022-08-19T07:27:23;21.00;99.90
34099;DHT22;20374;49.474;10.944;2022-08-19T07:29:52;21.00;99.90
34099;DHT22;20374;49.474;10.944;2022-08-19T07:32:22;21.00;99.90
34099;DHT22;20374;49.474;10.944;2022-08-19T07:34:48;21.00;99.90
34099;DHT22;20374;49.474;10.944;2022-08-19T07:37:13;21.00;99.90
34099;DHT22;20374;49.474;10.944;2022-08-19T07:39:39;21.00;99.90
34099;DHT22;20374;49.474;10.944;2022-08-19T07:42:09;21.00;99.90
34099;DHT22;20374;49.474;10.944;2022-08-19T07:44:36;21.00;99.90
34099;DHT22;20374;49.474;10.944;2022-08-19T07:47:02;20.90;99.90
34099;DHT22;20374;49.474;10.944;2022-08-19T07:49:28;20.90;99.90
34099;DHT22;20374;49.474;10.944;2022-08-19T07:52:01;20.80;99.90
34099;DHT22;20374;49.474;10.944;2022-08-19T07:54:29;20.80;99.90
34099;DHT22;20374;49.474;10.944;2022-08-19T07:56:56;20.80;99.90
34099;DHT22;20374;49.474;10.944;2022-08-19T07:59:23;20.70;99.90
34099;DHT22;20374;49.474;10.944;2022-08-19T08:01:49;20.60;99.90
34099;DHT22;20374;49.474;10.944;2022-08-19T08:04:16;20.60;99.90
34099;DHT22;20374;49.474;10.944;2022-08-19T08:07:01;20.60;99.90
34099;DHT22;20374;49.474;10.944;2022-08-19T08:09:45;20.60;99.90
34099;DHT22;20374;49.474;10.944;2022-08-19T08:12:18;20.60;99.90
34099;DHT22;20374;49.474;10.944;2022-08-19T08:14:48;20.60;99.90
34099;DHT22;20374;49.474;10.944;2022-08-19T08:17:16;20.60;99.90
34099;DHT22;20374;49.474;10.944;2022-08-19T08:19:44;20.70;99.90
34099;DHT22;20374;49.474;10.944;2022-08-19T08:22:14;20.70;99.90
34099;DHT22;20374;49.474;10.944;2022-08-19T08:25:08;20.70;99.90
34099;DHT22;20374;49.474;10.944;2022-08-19T08:27:36;20.70;99.90
34099;DHT22;20374;49.474;10.944;2022-08-19T08:30:17;20.70;99.90
34099;DHT22;20374;49.474;10.944;2022-08-19T08:32:44;20.70;99.90
34099;DHT22;20374;49.474;10.944;2022-08-19T08:35:13;20.80;99.90
34099;DHT22;20374;49.474;10.944;2022-08-19T08:37:39;20.90;99.90
34099;DHT22;20374;49.474;10.944;2022-08-19T08:40:33;20.90;99.90
34099;DHT22;20374;49.474;10.944;2022-08-19T08:43:01;21.10;99.90
34099;DHT22;20374;49.474;10.944;2022-08-19T08:45:30;21.20;99.90
34099;DHT22;20374;49.474;10.944;2022-08-19T08:48:02;21.50;99.90
34099;DHT22;20374;49.474;10.944;2022-08-19T08:50:39;21.60;99.90
34099;DHT22;20374;49.474;10.944;2022-08-19T08:53:08;21.70;99.90
34099;DHT22;20374;49.474;10.944;2022-08-19T08:55:36;21.80;99.90
34099;DHT22;20374;49.474;10.944;2022-08-19T08:58:12;21.80;99.90
34099;DHT22;20374;49.474;10.944;2022-08-19T09:00:47;21.80;99.90
34099;DHT22;20374;49.474;10.944;2022-08-19T09:03:22;21.70;99.90
34099;DHT22;20374;49.474;10.944;2022-08-19T09:06:10;21.60;99.90
34099;DHT22;20374;49.474;10.944;2022-08-19T09:09:14;21.50;99.90
34099;DHT22;20374;49.474;10.944;2022-08-19T09:11:50;21.50;99.90
34099;DHT22;20374;49.474;10.944;2022-08-19T09:14:51;21.40;99.90
34099;DHT22;20374;49.474;10.944;2022-08-19T09:17:22;21.30;99.90
34099;DHT22;20374;49.474;10.944;2022-08-19T09:22:27;21.20;99.90
34099;DHT22;20374;49.474;10.944;2022-08-19T09:24:54;21.20;99.90
34099;DHT22;20374;49.474;10.944;2022-08-19T09:27:20;21.20;99.90
34099;DHT22;20374;49.474;10.944;2022-08-19T09:29:49;21.10;99.90
34099;DHT22;20374;49.474;10.944;2022-08-19T09:32:16;21.10;99.90
34099;DHT22;20374;49.474;10.944;2022-08-19T09:34:42;21.20;99.90
34099;DHT22;20374;49.474;10.944;2022-08-19T09:37:09;21.20;99.90
34099;DHT22;20374;49.474;10.944;2022-08-19T09:39:34;21.30;99.90
34099;DHT22;20374;49.474;10.944;2022-08-19T09:42:00;21.20;99.90
34099;DHT22;20374;49.474;10.944;2022-08-19T09:44:29;21.20;99.90
34099;DHT22;20374;49.474;10.944;2022-08-19T09:46:55;21.30;99.90
34099;DHT22;20374;49.474;10.944;2022-08-19T09:49:21;21.30;99.90
34099;DHT22;20374;49.474;10.944;2022-08-19T09:51:51;21.30;99.90
34099;DHT22;20374;49.474;10.944;2022-08-19T09:54:22;21.20;99.90
34099;DHT22;20374;49.474;10.944;2022-08-19T09:56:48;21.20;99.90
34099;DHT22;20374;49.474;10.944;2022-08-19T09:59:14;21.20;99.90
34099;DHT22;20374;49.474;10.944;2022-08-19T10:01:40;21.20;99.90
34099;DHT22;20374;49.474;10.944;2022-08-19T10:04:06;21.20;99.90
34099;DHT22;20374;49.474;10.944;2022-08-19T10:06:37;21.20;99.90
34099;DHT22;20374;49.474;10.944;2022-08-19T10:09:05;21.20;99.90
34099;DHT22;20374;49.474;10.944;2022-08-19T10:11:34;21.20;99.90
34099;DHT22;20374;49.474;10.944;2022-08-19T10:14:02;21.20;99.90
34099;DHT22;20374;49.474;10.944;2022-08-19T10:16:28;21.30;99.90
34099;DHT22;20374;49.474;10.944;2022-08-19T10:18:54;21.30;99.90
34099;DHT22;20374;49.474;10.944;2022-08-19T10:21:24;21.20;99.90
34099;DHT22;20374;49.474;10.944;2022-08-19T10:23:56;21.20;99.90
34099;DHT22;20374;49.474;10.944;2022-08-19T10:26:28;21.20;99.90
34099;DHT22;20374;49.474;10.944;2022-08-19T10:28:55;21.10;99.90
34099;DHT22;20374;49.474;10.944;2022-08-19T10:31:24;21.10;99.90
34099;DHT22;20374;49.474;10.944;2022-08-19T10:33:51;21.10;99.90
34099;DHT22;20374;49.474;10.944;2022-08-19T10:36:30;21.10;99.90
34099;DHT22;20374;49.474;10.944;2022-08-19T10:38:58;21.10;99.90
34099;DHT22;20374;49.474;10.944;2022-08-19T10:41:28;21.10;99.90
34099;DHT22;20374;49.474;10.944;2022-08-19T10:44:02;21.10;99.90
34099;DHT22;20374;49.474;10.944;2022-08-19T10:46:36;21.10;99.90
34099;DHT22;20374;49.474;10.944;2022-08-19T10:49:03;21.20;99.90
34099;DHT22;20374;49.474;10.944;2022-08-19T10:51:29;21.20;99.90
34099;DHT22;20374;49.474;10.944;2022-08-19T10:54:14;21.20;99.90
34099;DHT22;20374;49.474;10.944;2022-08-19T10:56:40;21.20;99.90
34099;DHT22;20374;49.474;10.944;2022-08-19T11:01:45;21.30;99.90
34099;DHT22;20374;49.474;10.944;2022-08-19T11:04:12;21.30;99.90
34099;DHT22;20374;49.474;10.944;2022-08-19T11:06:40;21.30;99.90
34099;DHT22;20374;49.474;10.944;2022-08-19T11:09:07;21.30;99.90
34099;DHT22;20374;49.474;10.944;2022-08-19T11:11:34;21.30;99.90
34099;DHT22;20374;49.474;10.944;2022-08-19T11:14:10;21.40;99.90
34099;DHT22;20374;49.474;10.944;2022-08-19T11:16:37;21.30;99.90
34099;DHT22;20374;49.474;10.944;2022-08-19T11:19:05;21.30;99.90
34099;DHT22;20374;49.474;10.944;2022-08-19T11:21:41;21.30;99.90
34099;DHT22;20374;49.474;10.944;2022-08-19T11:24:10;21.30;99.90
34099;DHT22;20374;49.474;10.944;2022-08-19T11:26:38;21.40;99.90
34099;DHT22;20374;49.474;10.944;2022-08-19T11:29:06;21.30;99.90
34099;DHT22;20374;49.474;10.944;2022-08-19T11:31:37;21.20;99.90
34099;DHT22;20374;49.474;10.944;2022-08-19T11:34:06;21.20;99.90
34099;DHT22;20374;49.474;10.944;2022-08-19T11:36:33;21.20;99.90
34099;DHT22;20374;49.474;10.944;2022-08-19T11:39:00;21.20;99.90
34099;DHT22;20374;49.474;10.944;2022-08-19T11:41:27;21.20;99.90
34099;DHT22;20374;49.474;10.944;2022-08-19T11:43:53;21.20;99.90
34099;DHT22;20374;49.474;10.944;2022-08-19T11:46:23;21.20;99.90
34099;DHT22;20374;49.474;10.944;2022-08-19T11:48:49;21.30;99.90
34099;DHT22;20374;49.474;10.944;2022-08-19T11:51:19;21.30;99.90
34099;DHT22;20374;49.474;10.944;2022-08-19T11:53:45;21.40;99.90
34099;DHT22;20374;49.474;10.944;2022-08-19T11:56:12;21.40;99.90
34099;DHT22;20374;49.474;10.944;2022-08-19T11:58:38;21.40;99.90
34099;DHT22;20374;49.474;10.944;2022-08-19T12:01:07;21.40;99.90
34099;DHT22;20374;49.474;10.944;2022-08-19T12:03:33;21.40;99.90
34099;DHT22;20374;49.474;10.944;2022-08-19T12:06:04;21.50;99.90
34099;DHT22;20374;49.474;10.944;2022-08-19T12:08:30;21.40;99.90
34099;DHT22;20374;49.474;10.944;2022-08-19T12:10:56;21.40;99.90
34099;DHT22;20374;49.474;10.944;2022-08-19T12:13:22;21.40;99.90
34099;DHT22;20374;49.474;10.944;2022-08-19T12:15:49;21.40;99.90
34099;DHT22;20374;49.474;10.944;2022-08-19T12:18:15;21.40;99.90
34099;DHT22;20374;49.474;10.944;2022-08-19T12:20:42;21.40;99.90
34099;DHT22;20374;49.474;10.944;2022-08-19T12:23:09;21.30;99.90
34099;DHT22;20374;49.474;10.944;2022-08-19T12:25:36;21.20;99.90
34099;DHT22;20374;49.474;10.944;2022-08-19T12:28:02;21.20;99.90
34099;DHT22;20374;49.474;10.944;2022-08-19T12:30:29;21.20;99.90
34099;DHT22;20374;49.474;10.944;2022-08-19T12:32:55;20.90;99.90
34099;DHT22;20374;49.474;10.944;2022-08-19T12:35:21;20.70;99.90
34099;DHT22;20374;49.474;10.944;2022-08-19T12:37:48;20.40;99.90
34099;DHT22;20374;49.474;10.944;2022-08-19T12:40:17;20.30;99.90
34099;DHT22;20374;49.474;10.944;2022-08-19T12:42:43;20.20;99.90
34099;DHT22;20374;49.474;10.944;2022-08-19T12:45:11;20.10;99.90
34099;DHT22;20374;49.474;10.944;2022-08-19T12:47:38;20.00;99.90
34099;DHT22;20374;49.474;10.944;2022-08-19T12:50:05;19.90;99.90
34099;DHT22;20374;49.474;10.944;2022-08-19T12:52:32;19.80;99.90
34099;DHT22;20374;49.474;10.944;2022-08-19T12:54:58;19.70;99.90
34099;DHT22;20374;49.474;10.944;2022-08-19T12:57:25;19.60;99.90
34099;DHT22;20374;49.474;10.944;2022-08-19T12:59:52;19.60;99.90
34099;DHT22;20374;49.474;10.944;2022-08-19T13:02:19;19.50;99.90
34099;DHT22;20374;49.474;10.944;2022-08-19T13:04:45;19.50;99.90
34099;DHT22;20374;49.474;10.944;2022-08-19T13:07:11;19.40;99.90
34099;DHT22;20374;49.474;10.944;2022-08-19T13:09:37;19.40;99.90
34099;DHT22;20374;49.474;10.944;2022-08-19T13:12:03;19.40;99.90
34099;DHT22;20374;49.474;10.944;2022-08-19T13:14:34;19.40;99.90
34099;DHT22;20374;49.474;10.944;2022-08-19T13:17:01;19.40;99.90
34099;DHT22;20374;49.474;10.944;2022-08-19T13:19:27;19.40;99.90
34099;DHT22;20374;49.474;10.944;2022-08-19T13:21:54;19.40;99.90
34099;DHT22;20374;49.474;10.944;2022-08-19T13:24:21;19.40;99.90
34099;DHT22;20374;49.474;10.944;2022-08-19T13:26:47;19.40;99.90
34099;DHT22;20374;49.474;10.944;2022-08-19T13:29:13;19.50;99.90
34099;DHT22;20374;49.474;10.944;2022-08-19T13:31:58;19.50;99.90
34099;DHT22;20374;49.474;10.944;2022-08-19T13:34:42;19.60;99.90
34099;DHT22;20374;49.474;10.944;2022-08-19T13:37:08;19.60;99.90
34099;DHT22;20374;49.474;10.944;2022-08-19T13:39:35;19.60;99.90
34099;DHT22;20374;49.474;10.944;2022-08-19T13:42:02;19.60;99.90
34099;DHT22;20374;49.474;10.944;2022-08-19T13:44:29;19.60;99.90
34099;DHT22;20374;49.474;10.944;2022-08-19T13:47:05;19.60;99.90
34099;DHT22;20374;49.474;10.944;2022-08-19T13:49:33;19.60;99.90
34099;DHT22;20374;49.474;10.944;2022-08-19T13:52:00;19.60;99.90
34099;DHT22;20374;49.474;10.944;2022-08-19T13:54:26;19.50;99.90
34099;DHT22;20374;49.474;10.944;2022-08-19T13:56:52;19.50;99.90
34099;DHT22;20374;49.474;10.944;2022-08-19T13:59:19;19.50;99.90
34099;DHT22;20374;49.474;10.944;2022-08-19T14:01:44;19.50;99.90
34099;DHT22;20374;49.474;10.944;2022-08-19T14:04:10;19.50;99.90
34099;DHT22;20374;49.474;10.944;2022-08-19T14:06:36;19.40;99.90
34099;DHT22;20374;49.474;10.944;2022-08-19T14:09:03;19.40;99.90
34099;DHT22;20374;49.474;10.944;2022-08-19T14:11:30;19.30;99.90
34099;DHT22;20374;49.474;10.944;2022-08-19T14:13:56;19.20;99.90
34099;DHT22;20374;49.474;10.944;2022-08-19T14:16:22;19.20;99.90
34099;DHT22;20374;49.474;10.944;2022-08-19T14:18:48;19.20;99.90
34099;DHT22;20374;49.474;10.944;2022-08-19T14:21:16;19.20;99.90
34099;DHT22;20374;49.474;10.944;2022-08-19T14:23:43;19.20;99.90
34099;DHT22;20374;49.474;10.944;2022-08-19T14:26:12;19.10;99.90
34099;DHT22;20374;49.474;10.944;2022-08-19T14:28:39;19.00;99.90
34099;DHT22;20374;49.474;10.944;2022-08-19T14:31:12;19.00;99.90
34099;DHT22;20374;49.474;10.944;2022-08-19T14:33:39;19.00;99.90
34099;DHT22;20374;49.474;10.944;2022-08-19T14:36:06;19.00;99.90
34099;DHT22;20374;49.474;10.944;2022-08-19T14:38:32;18.90;99.90
34099;DHT22;20374;49.474;10.944;2022-08-19T14:41:15;19.00;99.90
34099;DHT22;20374;49.474;10.944;2022-08-19T14:43:44;19.00;99.90
34099;DHT22;20374;49.474;10.944;2022-08-19T14:49:37;18.90;99.90
34099;DHT22;20374;49.474;10.944;2022-08-19T14:52:05;18.90;99.90
34099;DHT22;20374;49.474;10.944;2022-08-19T14:54:31;18.80;99.90
34099;DHT22;20374;49.474;10.944;2022-08-19T14:56:57;18.80;99.90
34099;DHT22;20374;49.474;10.944;2022-08-19T14:59:23;18.80;99.90
34099;DHT22;20374;49.474;10.944;2022-08-19T15:01:49;18.60;99.90
34099;DHT22;20374;49.474;10.944;2022-08-19T15:04:15;18.50;99.90
34099;DHT22;20374;49.474;10.944;2022-08-19T15:06:41;18.40;99.90
34099;DHT22;20374;49.474;10.944;2022-08-19T15:09:08;18.40;99.90
34099;DHT22;20374;49.474;10.944;2022-08-19T15:11:34;18.30;99.90
34099;DHT22;20374;49.474;10.944;2022-08-19T15:14:00;18.30;99.90
34099;DHT22;20374;49.474;10.944;2022-08-19T15:16:27;18.10;99.90
34099;DHT22;20374;49.474;10.944;2022-08-19T15:18:55;18.20;99.90
34099;DHT22;20374;49.474;10.944;2022-08-19T15:21:23;18.20;99.90
34099;DHT22;20374;49.474;10.944;2022-08-19T15:23:49;18.10;99.90
34099;DHT22;20374;49.474;10.944;2022-08-19T15:26:17;18.10;99.90
34099;DHT22;20374;49.474;10.944;2022-08-19T15:28:44;18.00;99.90
34099;DHT22;20374;49.474;10.944;2022-08-19T15:31:12;17.90;99.90
34099;DHT22;20374;49.474;10.944;2022-08-19T15:33:39;17.80;99.90